createdAt,value
2022-10-06T00:06:37.338Z,100.00
2022-10-06T00:16:38.924Z,100.00
2022-10-06T00:26:40.641Z,100.00
2022-10-06T00:36:43.986Z,100.00
2022-10-06T00:46:50.304Z,100.00
2022-10-06T00:56:53.748Z,100.00
2022-10-06T01:06:59.287Z,100.00
2022-10-06T01:17:08.178Z,100.00
2022-10-06T01:27:12.271Z,100.00
2022-10-06T01:37:14.296Z,100.00
2022-10-06T01:47:15.981Z,100.00
2022-10-06T01:57:17.582Z,100.00
2022-10-06T02:07:19.793Z,100.00
2022-10-06T02:17:23.388Z,100.00
2022-10-06T02:27:24.939Z,100.00
2022-10-06T02:37:26.656Z,100.00
2022-10-06T02:47:28.428Z,100.00
2022-10-06T02:57:31.512Z,100.00
2022-10-06T03:07:33.178Z,100.00
2022-10-06T03:17:34.929Z,100.00
2022-10-06T03:27:37.577Z,100.00
2022-10-06T03:37:41.235Z,100.00
2022-10-06T03:47:43.080Z,100.00
2022-10-06T03:57:44.660Z,100.00
2022-10-06T04:07:47.541Z,100.00
2022-10-06T04:17:49.137Z,100.00
2022-10-06T04:27:50.787Z,100.00
2022-10-06T04:37:53.163Z,100.00
2022-10-06T04:47:54.967Z,100.00
2022-10-06T04:57:56.538Z,100.00
2022-10-06T05:08:00.298Z,100.00
2022-10-06T05:18:06.054Z,100.00
2022-10-06T05:28:08.361Z,100.00
2022-10-06T05:38:12.000Z,100.00
2022-10-06T05:48:14.462Z,100.00
2022-10-06T05:58:19.712Z,100.00
2022-10-06T06:08:21.763Z,100.00
2022-10-06T06:18:23.367Z,100.00
2022-10-06T06:28:25.069Z,100.00
2022-10-06T06:38:27.777Z,100.00
2022-10-06T06:48:31.049Z,100.00
2022-10-06T06:58:33.359Z,100.00
2022-10-06T07:08:42.797Z,100.00
2022-10-06T07:19:05.753Z,100.00
2022-10-06T07:29:08.838Z,100.00
2022-10-06T07:39:10.560Z,100.00
2022-10-06T07:49:12.957Z,100.00
2022-10-06T07:59:21.428Z,100.00
2022-10-06T08:09:24.254Z,100.00
2022-10-06T08:19:25.942Z,100.00
2022-10-06T08:29:28.662Z,95.07
2022-10-06T08:39:31.065Z,84.91
2022-10-06T08:49:47.615Z,79.51
2022-10-06T08:59:53.488Z,75.23
2022-10-06T09:10:00.967Z,71.67
2022-10-06T09:20:10.934Z,68.60
2022-10-06T09:30:13.341Z,57.89
2022-10-06T09:40:38.680Z,51.58
2022-10-06T09:50:40.892Z,52.08
2022-10-06T10:00:53.653Z,46.57
2022-10-06T10:11:31.655Z,45.94
2022-10-06T10:21:35.570Z,48.44
2022-10-06T10:31:48.200Z,48.04
2022-10-06T10:41:54.602Z,39.51
2022-10-06T10:52:20.409Z,36.16
2022-10-06T11:02:23.342Z,33.32
2022-10-06T11:12:44.706Z,40.19
2022-10-06T11:23:15.190Z,42.14
2022-10-06T11:33:42.182Z,44.42
2022-10-06T11:43:48.940Z,40.53
2022-10-06T11:53:51.493Z,40.63
2022-10-06T12:04:09.396Z,44.80
2022-10-06T12:16:32.338Z,40.31
2022-10-06T12:25:07.714Z,40.69
2022-10-06T12:35:26.262Z,44.90
2022-10-06T12:45:28.487Z,45.27
2022-10-06T12:55:51.876Z,31.66
2022-10-06T13:06:03.396Z,40.15
2022-10-06T13:16:09.093Z,31.84
2022-10-06T13:26:21.931Z,33.69
2022-10-06T13:36:28.034Z,33.99
2022-10-06T13:46:42.295Z,37.12
2022-10-06T13:56:44.506Z,30.62
2022-10-06T14:07:09.001Z,31.23
2022-10-06T14:17:22.586Z,36.57
2022-10-06T14:27:24.427Z,47.37
2022-10-06T14:37:26.083Z,53.70
2022-10-06T14:47:29.804Z,55.81
2022-10-06T14:57:32.415Z,59.43
2022-10-06T15:07:53.872Z,62.62
2022-10-06T15:17:57.471Z,73.25
2022-10-06T15:28:20.019Z,76.61
2022-10-06T15:38:26.361Z,89.28
2022-10-06T15:48:30.250Z,90.38
2022-10-06T15:58:31.931Z,94.51
2022-10-06T16:08:35.095Z,100.00
2022-10-06T16:18:39.408Z,100.00
2022-10-06T16:28:47.281Z,100.00
2022-10-06T16:38:56.359Z,100.00
2022-10-06T16:49:01.027Z,100.00
2022-10-06T16:59:20.246Z,100.00
2022-10-06T17:09:25.555Z,100.00
2022-10-06T17:19:34.026Z,100.00
2022-10-06T17:29:36.689Z,100.00
2022-10-06T17:39:38.516Z,100.00
2022-10-06T17:49:44.336Z,100.00
2022-10-06T17:59:46.089Z,100.00
2022-10-06T18:10:07.743Z,100.00
2022-10-06T18:20:09.506Z,100.00
2022-10-06T18:30:12.579Z,100.00
2022-10-06T18:40:15.030Z,100.00
2022-10-06T18:50:16.824Z,100.00
2022-10-06T19:00:19.932Z,100.00
2022-10-06T19:10:22.078Z,100.00
2022-10-06T19:20:24.271Z,100.00
2022-10-06T19:30:29.740Z,100.00
2022-10-06T19:40:32.790Z,100.00
2022-10-06T19:50:34.801Z,100.00
2022-10-06T20:00:38.561Z,100.00
2022-10-06T20:10:40.429Z,100.00
2022-10-06T20:20:42.046Z,100.00
2022-10-06T20:30:49.818Z,100.00
2022-10-06T20:40:51.416Z,100.00
2022-10-06T20:50:53.680Z,100.00
2022-10-06T21:01:03.287Z,100.00
2022-10-06T21:11:05.328Z,100.00
2022-10-06T21:21:07.962Z,100.00
2022-10-06T21:31:16.153Z,100.00
2022-10-06T21:41:30.176Z,100.00
2022-10-06T21:51:33.541Z,100.00
2022-10-06T22:01:44.007Z,100.00
2022-10-06T22:11:45.834Z,100.00
2022-10-06T22:21:48.821Z,100.00
2022-10-06T22:31:50.549Z,100.00
2022-10-06T22:41:52.318Z,100.00
2022-10-06T22:51:55.106Z,100.00
2022-10-06T23:01:58.550Z,100.00
2022-10-06T23:12:01.264Z,100.00
2022-10-06T23:22:02.958Z,100.00
2022-10-06T23:32:04.684Z,100.00
2022-10-06T23:42:06.709Z,100.00
2022-10-06T23:52:09.503Z,100.00
